Time;durP1;ratioP1;P1;durP2;ratioP2;P2;SDS_P1;SDS_P2;PMS_P1;PMS_P2;Temp;Humidity;BMP_temperature;BMP_pressure;BME280_temperature;BME280_humidity;BME280_pressure;Samples;Min_cycle;Max_cycle;Signal;HPM_P1;HPM_P2
2021/08/12 00:00:51;;;;;;;5.40;4.90;;;20.60;99.90;;;;;;5055491;28;20253;-55
2021/08/12 00:03:17;;;;;;;5.73;5.13;;;20.50;99.90;;;;;;5055701;28;20175;-55
2021/08/12 00:05:43;;;;;;;6.63;4.97;;;20.60;99.90;;;;;;5054766;28;20225;-56
2021/08/12 00:08:08;;;;;;;6.10;5.50;;;20.50;99.90;;;;;;5055352;28;20246;-56
2021/08/12 00:10:34;;;;;;;6.03;5.03;;;20.50;99.90;;;;;;5055496;28;20509;-57
2021/08/12 00:12:59;;;;;;;6.17;5.57;;;20.50;99.90;;;;;;5055127;28;20163;-53
2021/08/12 00:15:25;;;;;;;6.33;5.50;;;20.50;99.90;;;;;;5055015;28;20236;-57
2021/08/12 00:17:52;;;;;;;6.57;5.90;;;20.40;99.90;;;;;;5054738;28;20246;-55
2021/08/12 00:20:18;;;;;;;9.20;6.67;;;20.40;99.90;;;;;;5054191;28;20163;-56
2021/08/12 00:22:44;;;;;;;7.37;6.10;;;20.40;99.90;;;;;;5055536;28;20413;-57
2021/08/12 00:25:10;;;;;;;5.80;5.30;;;20.40;99.90;;;;;;5055448;28;20804;-57
2021/08/12 00:27:35;;;;;;;5.37;4.87;;;20.40;99.90;;;;;;5054884;28;20205;-57
2021/08/12 00:30:02;;;;;;;5.27;4.87;;;20.40;99.90;;;;;;5054308;28;20174;-58
2021/08/12 00:32:27;;;;;;;6.93;6.33;;;20.50;99.90;;;;;;5055080;28;20183;-58
2021/08/12 00:34:53;;;;;;;9.63;6.37;;;20.50;99.90;;;;;;5054479;28;20933;-56
2021/08/12 00:37:19;;;;;;;6.27;5.67;;;20.40;99.90;;;;;;5054448;28;20250;-57
2021/08/12 00:39:45;;;;;;;6.30;5.70;;;20.40;99.90;;;;;;5054715;28;20186;-58
2021/08/12 00:42:11;;;;;;;6.53;5.90;;;20.30;99.90;;;;;;5054709;28;20402;-58
2021/08/12 00:44:37;;;;;;;8.80;6.77;;;20.30;99.90;;;;;;5054916;28;20249;-57
2021/08/12 00:47:03;;;;;;;6.70;5.90;;;20.20;99.90;;;;;;5054507;28;20170;-57
2021/08/12 00:49:29;;;;;;;7.07;6.03;;;20.10;99.90;;;;;;5054267;28;20405;-57
2021/08/12 00:51:54;;;;;;;6.97;6.27;;;20.00;99.90;;;;;;5054133;28;20400;-57
2021/08/12 00:54:20;;;;;;;7.03;6.33;;;20.00;99.90;;;;;;5054418;28;20632;-58
2021/08/12 00:56:48;;;;;;;8.47;6.37;;;20.10;99.90;;;;;;5054390;28;20169;-57
2021/08/12 00:59:14;;;;;;;7.83;5.40;;;20.00;99.90;;;;;;5053897;28;20397;-56
2021/08/12 01:01:39;;;;;;;7.63;6.80;;;20.10;99.90;;;;;;5054239;28;20412;-58
2021/08/12 01:04:05;;;;;;;6.93;6.33;;;20.20;99.90;;;;;;5054433;28;20631;-58
2021/08/12 01:06:37;;;;;;;8.60;6.47;;;20.20;99.90;;;;;;5055012;28;20213;-58
2021/08/12 01:09:06;;;;;;;8.10;6.20;;;20.30;99.90;;;;;;5054185;28;20246;-57
2021/08/12 01:11:43;;;;;;;6.37;5.77;;;20.30;99.90;;;;;;5054467;28;20412;-58
2021/08/12 01:14:35;;;;;;;8.30;7.23;;;20.20;99.90;;;;;;5052892;28;20413;-57
2021/08/12 01:17:09;;;;;;;9.57;6.83;;;20.20;99.90;;;;;;5054085;28;20408;-57
2021/08/12 01:20:05;;;;;;;7.50;6.63;;;20.20;99.90;;;;;;5054058;28;20400;-56
2021/08/12 01:22:35;;;;;;;7.47;6.40;;;20.20;99.90;;;;;;5054137;28;20396;-53
2021/08/12 01:25:07;;;;;;;7.27;6.57;;;20.10;99.90;;;;;;5053719;28;20448;-54
2021/08/12 01:27:37;;;;;;;7.00;6.30;;;20.10;99.90;;;;;;5053318;28;20421;-53
2021/08/12 01:30:08;;;;;;;6.93;6.33;;;20.00;99.90;;;;;;5053527;28;20405;-56
2021/08/12 01:32:59;;;;;;;7.07;6.30;;;20.00;99.90;;;;;;5053718;28;20433;-56
2021/08/12 01:35:29;;;;;;;6.97;6.13;;;20.00;99.90;;;;;;5053727;28;20948;-58
2021/08/12 01:38:01;;;;;;;6.80;6.10;;;20.00;99.90;;;;;;5054299;28;20458;-57
2021/08/12 01:40:29;;;;;;;8.37;6.83;;;19.90;99.90;;;;;;5053947;28;20408;-56
2021/08/12 01:42:57;;;;;;;8.63;6.73;;;19.90;99.90;;;;;;5052232;28;20944;-56
2021/08/12 01:45:23;;;;;;;7.47;6.70;;;19.90;99.90;;;;;;5053635;28;20453;-56
2021/08/12 01:47:50;;;;;;;7.43;6.40;;;19.80;99.90;;;;;;5053606;28;20390;-57
2021/08/12 01:50:16;;;;;;;7.50;6.67;;;19.70;99.90;;;;;;5053700;28;20405;-57
2021/08/12 01:52:48;;;;;;;9.53;6.40;;;19.80;99.90;;;;;;5053896;28;20484;-58
2021/08/12 01:55:15;;;;;;;6.80;6.20;;;19.80;99.90;;;;;;5053569;28;20453;-56
2021/08/12 01:57:43;;;;;;;7.17;6.47;;;19.70;99.90;;;;;;5053187;28;20775;-57
2021/08/12 02:00:10;;;;;;;7.73;6.80;;;19.70;99.90;;;;;;5053082;28;20443;-57
2021/08/12 02:02:37;;;;;;;8.23;6.60;;;19.80;99.90;;;;;;5053426;28;20425;-56
2021/08/12 02:05:04;;;;;;;8.43;7.23;;;19.80;99.90;;;;;;5035034;28;20469;-57
2021/08/12 02:07:29;;;;;;;7.40;6.00;;;19.80;99.90;;;;;;5053235;28;20382;-57
2021/08/12 02:09:56;;;;;;;9.73;7.23;;;19.80;99.90;;;;;;5053208;28;20405;-56
2021/08/12 02:12:21;;;;;;;7.23;6.50;;;19.70;99.90;;;;;;5053507;28;20163;-55
2021/08/12 02:14:47;;;;;;;7.37;6.67;;;19.70;99.90;;;;;;5034641;28;20448;-55
2021/08/12 02:17:13;;;;;;;7.80;7.00;;;19.70;99.90;;;;;;5053112;28;20231;-57
2021/08/12 02:19:39;;;;;;;8.83;7.23;;;19.70;99.90;;;;;;5053136;28;20185;-57
2021/08/12 02:22:12;;;;;;;7.70;6.97;;;19.60;99.90;;;;;;5053055;28;20167;-57
2021/08/12 02:24:45;;;;;;;7.80;7.10;;;19.60;99.90;;;;;;5052908;28;20393;-57
2021/08/12 02:27:15;;;;;;;6.83;6.10;;;19.60;99.90;;;;;;5053205;28;20373;-53
2021/08/12 02:29:42;;;;;;;7.40;6.77;;;19.50;99.90;;;;;;5053328;28;20382;-53
2021/08/12 02:32:13;;;;;;;8.90;7.20;;;19.50;99.90;;;;;;5053367;28;20771;-55
2021/08/12 02:34:41;;;;;;;6.83;6.20;;;19.60;99.90;;;;;;5053473;28;20374;-56
2021/08/12 02:37:10;;;;;;;7.40;6.70;;;19.60;99.90;;;;;;5053456;28;20846;-57
2021/08/12 02:39:38;;;;;;;8.80;6.80;;;19.60;99.90;;;;;;5053145;28;20409;-57
2021/08/12 02:42:05;;;;;;;8.70;7.03;;;19.60;99.90;;;;;;5054344;28;20397;-57
2021/08/12 02:44:31;;;;;;;8.80;7.50;;;19.70;99.90;;;;;;5055621;28;20942;-58
2021/08/12 02:46:59;;;;;;;7.97;7.20;;;19.70;99.90;;;;;;5057152;28;20416;-56
2021/08/12 02:49:27;;;;;;;8.53;7.63;;;19.60;99.90;;;;;;5055835;28;20417;-57
2021/08/12 02:51:54;;;;;;;11.20;8.10;;;19.50;99.90;;;;;;5056930;28;20739;-57
2021/08/12 02:54:20;;;;;;;9.90;8.03;;;19.50;99.90;;;;;;5057117;28;20785;-58
2021/08/12 02:56:47;;;;;;;8.70;6.90;;;19.50;99.90;;;;;;5057301;28;20499;-57
2021/08/12 02:59:14;;;;;;;8.50;7.10;;;19.50;99.90;;;;;;5058261;28;20412;-57
2021/08/12 03:01:40;;;;;;;9.13;6.20;;;19.50;99.90;;;;;;5056577;28;20445;-57
2021/08/12 03:04:07;;;;;;;8.73;6.60;;;19.50;99.90;;;;;;5056598;28;20841;-57
2021/08/12 03:06:33;;;;;;;7.90;7.10;;;19.50;99.90;;;;;;5056372;28;21024;-57
2021/08/12 03:09:00;;;;;;;8.43;7.57;;;19.50;99.90;;;;;;5056451;28;20887;-57
2021/08/12 03:11:26;;;;;;;7.63;6.90;;;19.50;99.90;;;;;;5056474;28;20400;-57
2021/08/12 03:13:53;;;;;;;9.03;8.17;;;19.40;99.90;;;;;;5056125;28;20906;-56
2021/08/12 03:16:19;;;;;;;10.67;7.60;;;19.40;99.90;;;;;;5056365;28;20206;-57
2021/08/12 03:18:45;;;;;;;9.07;8.17;;;19.30;99.90;;;;;;5056285;28;20421;-53
2021/08/12 03:21:12;;;;;;;7.47;6.77;;;19.30;99.90;;;;;;5056437;28;20500;-57
2021/08/12 03:23:39;;;;;;;8.10;7.40;;;19.40;99.90;;;;;;5055024;28;20171;-57
2021/08/12 03:26:05;;;;;;;8.80;7.97;;;19.40;99.90;;;;;;5056008;28;20456;-57
2021/08/12 03:28:31;;;;;;;8.23;7.40;;;19.30;99.90;;;;;;5055835;28;20405;-54
2021/08/12 03:30:58;;;;;;;8.90;8.00;;;19.30;99.90;;;;;;5056050;28;20931;-56
2021/08/12 03:33:25;;;;;;;8.63;7.83;;;19.20;99.90;;;;;;5056490;28;20401;-57
2021/08/12 03:35:50;;;;;;;8.40;6.83;;;19.20;99.90;;;;;;5055923;28;20909;-53
2021/08/12 03:38:16;;;;;;;8.10;7.30;;;19.10;99.90;;;;;;5055819;28;20397;-57
2021/08/12 03:40:42;;;;;;;9.80;7.00;;;19.10;99.90;;;;;;5056002;28;20224;-57
2021/08/12 03:43:07;;;;;;;11.83;8.17;;;19.10;99.90;;;;;;5055465;28;20878;-57
2021/08/12 03:45:33;;;;;;;7.40;6.70;;;19.00;99.90;;;;;;5055485;28;20234;-57
2021/08/12 03:47:59;;;;;;;7.67;6.97;;;19.00;99.90;;;;;;5056143;28;20626;-57
2021/08/12 03:50:24;;;;;;;7.67;6.87;;;19.00;99.90;;;;;;5055748;28;20163;-57
2021/08/12 03:52:50;;;;;;;10.30;8.03;;;18.90;99.90;;;;;;5054519;28;20171;-57
2021/08/12 03:55:15;;;;;;;5.90;5.40;;;18.90;99.90;;;;;;5055082;28;20186;-55
2021/08/12 03:57:42;;;;;;;7.70;6.90;;;18.90;99.90;;;;;;5055597;28;20167;-57
2021/08/12 04:00:09;;;;;;;7.40;6.70;;;18.90;99.90;;;;;;5055291;28;20170;-57
2021/08/12 04:02:34;;;;;;;8.07;6.97;;;18.90;99.90;;;;;;5054803;28;20405;-57
2021/08/12 04:05:00;;;;;;;10.63;8.27;;;18.90;99.90;;;;;;5055386;28;20473;-54
2021/08/12 04:07:25;;;;;;;7.57;6.87;;;18.90;99.90;;;;;;5055821;28;20619;-55
2021/08/12 04:09:51;;;;;;;8.70;7.33;;;18.80;99.90;;;;;;5056067;28;20189;-57
2021/08/12 04:12:17;;;;;;;8.27;6.47;;;18.80;99.90;;;;;;5055594;28;20166;-55
2021/08/12 04:14:42;;;;;;;7.97;7.20;;;18.80;99.90;;;;;;5054998;28;20666;-54
2021/08/12 04:17:08;;;;;;;12.00;8.20;;;18.80;99.90;;;;;;5055336;28;20228;-57
2021/08/12 04:19:33;;;;;;;7.67;6.93;;;18.80;99.90;;;;;;5054893;28;20636;-57
2021/08/12 04:21:59;;;;;;;9.40;7.50;;;18.90;99.90;;;;;;5055660;28;20246;-56
2021/08/12 04:24:26;;;;;;;8.83;7.50;;;18.90;99.90;;;;;;5055288;28;20233;-57
2021/08/12 04:26:52;;;;;;;6.83;6.23;;;18.90;99.90;;;;;;5054851;28;20202;-56
2021/08/12 04:29:18;;;;;;;9.47;6.27;;;18.90;99.90;;;;;;5055083;28;20455;-56
2021/08/12 04:31:43;;;;;;;8.37;7.57;;;18.80;99.90;;;;;;5055169;28;20651;-57
2021/08/12 04:34:10;;;;;;;8.23;7.33;;;18.70;99.90;;;;;;5054590;28;20301;-57
2021/08/12 04:36:36;;;;;;;6.80;6.20;;;18.80;99.90;;;;;;5053467;28;20190;-57
2021/08/12 04:39:02;;;;;;;7.73;7.03;;;18.90;99.90;;;;;;5055008;28;20405;-54
2021/08/12 04:41:28;;;;;;;8.00;6.50;;;19.00;99.90;;;;;;5054769;28;20525;-57
2021/08/12 04:43:53;;;;;;;7.67;6.87;;;19.10;99.90;;;;;;5054576;28;20467;-56
2021/08/12 04:46:20;;;;;;;7.73;6.93;;;19.10;99.90;;;;;;5053691;28;20237;-57
2021/08/12 04:48:46;;;;;;;11.27;7.20;;;19.10;99.90;;;;;;5055147;28;20477;-57
2021/08/12 04:51:11;;;;;;;7.57;6.57;;;19.10;99.90;;;;;;5054333;28;20407;-57
2021/08/12 04:53:37;;;;;;;8.80;7.33;;;19.10;99.90;;;;;;5054435;28;20167;-56
2021/08/12 04:56:03;;;;;;;7.37;6.50;;;19.10;99.90;;;;;;5054323;28;20656;-56
2021/08/12 04:58:28;;;;;;;8.20;6.70;;;19.10;99.90;;;;;;5054616;28;20181;-56
2021/08/12 05:00:54;;;;;;;8.00;6.70;;;19.30;99.90;;;;;;5054333;28;20232;-57
2021/08/12 05:03:19;;;;;;;8.57;7.00;;;19.40;99.90;;;;;;5056888;28;20261;-57
2021/08/12 05:05:45;;;;;;;7.07;6.00;;;19.40;99.90;;;;;;5069893;22;20235;-55
2021/08/12 05:08:11;;;;;;;7.70;7.00;;;19.40;99.90;;;;;;5033672;28;20222;-57
2021/08/12 05:10:36;;;;;;;7.00;6.30;;;19.60;99.90;;;;;;5034525;28;20163;-58
2021/08/12 05:13:02;;;;;;;7.50;6.83;;;19.70;99.90;;;;;;5034393;28;20171;-57
2021/08/12 05:15:29;;;;;;;6.73;6.13;;;19.80;99.90;;;;;;5033990;28;20676;-58
2021/08/12 05:17:54;;;;;;;7.10;6.40;;;19.90;99.90;;;;;;5033503;28;20163;-54
2021/08/12 05:20:20;;;;;;;7.30;6.60;;;20.00;99.90;;;;;;5033997;28;20485;-58
2021/08/12 05:22:45;;;;;;;7.93;7.23;;;20.00;99.90;;;;;;5033621;28;20198;-57
2021/08/12 05:25:11;;;;;;;7.83;7.03;;;20.00;99.90;;;;;;5033503;28;20203;-55
2021/08/12 05:27:37;;;;;;;7.73;6.97;;;20.10;99.90;;;;;;5034200;28;20514;-56
2021/08/12 05:30:03;;;;;;;8.73;6.20;;;20.10;99.90;;;;;;5034166;28;20534;-55
2021/08/12 05:32:29;;;;;;;7.70;7.00;;;20.10;99.90;;;;;;5033749;28;20224;-57
2021/08/12 05:34:54;;;;;;;9.00;7.63;;;20.20;99.90;;;;;;5033675;28;20434;-57
2021/08/12 05:37:20;;;;;;;8.33;7.63;;;20.20;99.90;;;;;;5033415;28;20168;-58
2021/08/12 05:39:45;;;;;;;7.97;7.20;;;20.30;99.90;;;;;;5033528;28;20654;-58
2021/08/12 05:42:11;;;;;;;8.67;6.40;;;20.30;99.90;;;;;;5033769;28;20616;-57
2021/08/12 05:44:36;;;;;;;8.33;7.10;;;20.30;99.90;;;;;;5032108;28;20253;-56
2021/08/12 05:47:02;;;;;;;6.47;5.87;;;20.30;99.90;;;;;;5033392;28;20187;-58
2021/08/12 05:49:28;;;;;;;8.73;6.93;;;20.40;99.90;;;;;;5033738;28;20174;-58
2021/08/12 05:51:54;;;;;;;8.00;7.23;;;20.50;99.90;;;;;;5033665;28;20229;-56
2021/08/12 05:54:20;;;;;;;8.27;7.47;;;20.60;99.90;;;;;;5033378;28;20163;-56
2021/08/12 05:56:45;;;;;;;8.40;7.60;;;20.70;99.90;;;;;;5033166;28;20183;-57
2021/08/12 05:59:11;;;;;;;7.47;6.57;;;20.90;99.90;;;;;;5032863;28;20845;-57
2021/08/12 06:01:37;;;;;;;7.47;6.07;;;21.00;99.90;;;;;;5033926;28;20179;-56
2021/08/12 06:04:02;;;;;;;8.60;6.57;;;21.10;99.90;;;;;;5033204;28;20671;-57
2021/08/12 06:06:30;;;;;;;8.53;7.67;;;21.10;99.90;;;;;;5033073;28;20207;-55
2021/08/12 06:08:55;;;;;;;8.50;7.03;;;21.20;99.90;;;;;;5032129;28;20259;-58
2021/08/12 06:11:21;;;;;;;6.70;5.87;;;21.30;99.90;;;;;;5033114;28;20430;-54
2021/08/12 06:13:47;;;;;;;7.83;7.03;;;21.30;99.90;;;;;;5032913;28;20543;-56
2021/08/12 06:16:12;;;;;;;8.03;7.20;;;21.30;99.90;;;;;;5030674;28;20191;-57
2021/08/12 06:18:38;;;;;;;7.70;6.90;;;21.40;99.90;;;;;;5032007;28;20256;-58
2021/08/12 06:21:04;;;;;;;8.23;6.50;;;21.40;99.90;;;;;;5033264;28;20172;-57
2021/08/12 06:23:29;;;;;;;8.23;5.77;;;21.40;99.90;;;;;;5032926;28;20274;-52
2021/08/12 06:25:56;;;;;;;7.50;6.80;;;21.40;99.90;;;;;;5032889;28;20206;-54
2021/08/12 06:28:22;;;;;;;7.47;6.77;;;21.40;99.90;;;;;;5031973;28;20167;-59
2021/08/12 06:30:48;;;;;;;6.60;6.00;;;21.40;99.90;;;;;;5033072;28;20390;-57
2021/08/12 06:33:13;;;;;;;7.10;6.37;;;21.40;99.90;;;;;;5033226;28;20203;-56
2021/08/12 06:35:39;;;;;;;7.33;6.63;;;21.50;99.90;;;;;;5032611;28;20273;-55
2021/08/12 06:38:07;;;;;;;7.67;6.80;;;21.50;99.90;;;;;;5032629;28;20250;-57
2021/08/12 06:40:33;;;;;;;7.17;6.47;;;21.60;99.90;;;;;;5032717;28;20190;-58
2021/08/12 06:42:58;;;;;;;7.17;6.43;;;21.70;99.90;;;;;;5032710;28;20422;-55
2021/08/12 06:45:25;;;;;;;6.97;6.27;;;21.80;99.90;;;;;;5031229;28;20199;-55
2021/08/12 06:47:51;;;;;;;7.20;6.40;;;21.90;99.90;;;;;;5033026;28;20171;-57
2021/08/12 06:50:19;;;;;;;7.70;7.00;;;22.00;99.90;;;;;;5032993;28;20447;-59
2021/08/12 06:52:44;;;;;;;9.10;8.17;;;22.20;99.90;;;;;;5032026;28;20485;-57
2021/08/12 06:55:11;;;;;;;9.87;7.07;;;22.20;99.90;;;;;;5032258;28;20966;-58
2021/08/12 06:57:37;;;;;;;7.30;6.60;;;22.10;99.90;;;;;;5032717;28;20257;-55
2021/08/12 07:00:04;;;;;;;10.30;7.27;;;22.40;99.90;;;;;;5032708;28;20430;-58
2021/08/12 07:02:30;;;;;;;8.80;8.00;;;22.60;99.90;;;;;;5032732;28;20183;-56
2021/08/12 07:04:56;;;;;;;12.80;9.50;;;22.90;99.90;;;;;;5034455;28;20769;-54
2021/08/12 07:07:21;;;;;;;9.23;7.10;;;23.10;99.90;;;;;;5032958;28;20163;-58
2021/08/12 07:09:47;;;;;;;9.40;8.50;;;23.00;99.90;;;;;;5032150;28;20512;-54
2021/08/12 07:12:13;;;;;;;9.00;7.00;;;23.00;99.90;;;;;;5032789;28;20171;-58
2021/08/12 07:14:39;;;;;;;7.77;7.03;;;23.10;99.90;;;;;;5032449;28;20218;-56
2021/08/12 07:17:05;;;;;;;7.77;7.07;;;23.20;99.90;;;;;;5032409;28;20426;-54
2021/08/12 07:19:30;;;;;;;7.43;6.73;;;23.30;99.90;;;;;;5032311;28;20233;-57
2021/08/12 07:21:56;;;;;;;7.50;6.80;;;23.50;99.90;;;;;;5032541;28;20172;-57
2021/08/12 07:24:22;;;;;;;6.77;6.17;;;23.60;99.90;;;;;;5031791;28;20187;-55
2021/08/12 07:26:47;;;;;;;7.60;6.80;;;23.70;99.90;;;;;;5032255;28;20332;-55
2021/08/12 07:29:17;;;;;;;8.13;7.20;;;23.90;99.90;;;;;;5035305;28;20241;-57
2021/08/12 07:31:43;;;;;;;10.57;7.70;;;23.90;99.90;;;;;;5036129;28;20163;-57
2021/08/12 07:34:09;;;;;;;10.77;8.20;;;23.90;99.90;;;;;;5036149;28;20875;-53
2021/08/12 07:36:37;;;;;;;7.60;6.90;;;24.00;99.90;;;;;;5035914;28;20426;-55
2021/08/12 07:39:05;;;;;;;7.70;6.90;;;23.90;99.90;;;;;;5034967;28;20416;-58
2021/08/12 07:41:31;;;;;;;10.27;7.63;;;24.20;99.90;;;;;;5035529;28;20168;-58
2021/08/12 07:43:56;;;;;;;9.97;7.60;;;24.10;99.90;;;;;;5035868;28;20417;-58
2021/08/12 07:46:22;;;;;;;7.57;6.87;;;24.10;99.90;;;;;;5035746;28;20454;-55
2021/08/12 07:48:48;;;;;;;8.30;7.50;;;23.90;99.90;;;;;;5031707;28;20164;-56
2021/08/12 07:51:14;;;;;;;8.30;7.10;;;24.00;99.90;;;;;;5030586;28;20752;-57
2021/08/12 07:53:40;;;;;;;8.83;7.50;;;23.90;99.90;;;;;;5035494;28;20488;-55
2021/08/12 07:56:05;;;;;;;8.13;7.43;;;23.90;99.90;;;;;;5035745;28;20195;-58
2021/08/12 07:58:31;;;;;;;9.20;6.90;;;23.90;99.90;;;;;;5034811;28;20233;-59
2021/08/12 08:00:57;;;;;;;8.93;7.73;;;23.90;99.90;;;;;;5035763;28;20171;-56
2021/08/12 08:03:22;;;;;;;7.63;6.83;;;24.00;99.90;;;;;;5035438;28;20213;-58
2021/08/12 08:05:48;;;;;;;11.47;8.20;;;24.00;99.90;;;;;;5035268;28;20741;-59
2021/08/12 08:08:13;;;;;;;9.43;8.23;;;23.90;99.90;;;;;;5035629;28;20186;-57
2021/08/12 08:10:39;;;;;;;8.00;6.93;;;24.00;99.90;;;;;;5035356;28;20643;-58
2021/08/12 08:13:05;;;;;;;11.37;7.60;;;24.10;99.90;;;;;;5035275;28;20175;-55
2021/08/12 08:15:30;;;;;;;8.00;7.20;;;24.30;99.90;;;;;;5034002;28;20206;-53
2021/08/12 08:17:56;;;;;;;11.60;7.67;;;24.50;99.90;;;;;;5034604;28;20186;-58
2021/08/12 08:20:22;;;;;;;10.53;7.70;;;24.50;99.90;;;;;;5035436;28;20184;-58
2021/08/12 08:22:48;;;;;;;7.93;7.13;;;24.60;99.90;;;;;;5035575;28;20545;-58
2021/08/12 08:25:14;;;;;;;9.57;8.57;;;24.60;99.90;;;;;;5035168;28;20237;-56
2021/08/12 08:27:39;;;;;;;10.53;8.67;;;24.70;99.90;;;;;;5035489;28;20460;-58
2021/08/12 08:30:05;;;;;;;9.13;7.70;;;24.60;99.90;;;;;;5034995;28;20174;-56
2021/08/12 08:32:32;;;;;;;12.53;8.10;;;24.60;99.90;;;;;;5034935;28;20188;-57
2021/08/12 08:34:58;;;;;;;9.97;9.07;;;24.90;99.90;;;;;;5034887;28;20776;-58
2021/08/12 08:37:24;;;;;;;8.50;7.60;;;24.90;99.90;;;;;;5034879;28;20515;-59
2021/08/12 08:39:49;;;;;;;12.40;8.60;;;25.20;99.90;;;;;;5034433;28;20774;-59
2021/08/12 08:42:16;;;;;;;10.63;8.47;;;25.20;99.90;;;;;;5034960;28;20632;-56
2021/08/12 08:44:45;;;;;;;9.67;7.90;;;25.10;99.90;;;;;;5033949;28;20640;-57
2021/08/12 08:47:13;;;;;;;9.83;7.80;;;25.20;99.90;;;;;;5034694;28;20487;-57
2021/08/12 08:49:41;;;;;;;10.60;9.17;;;25.40;99.90;;;;;;5034421;28;20410;-57
2021/08/12 08:52:10;;;;;;;10.63;8.80;;;25.60;99.90;;;;;;5034514;28;20493;-58
2021/08/12 08:54:42;;;;;;;9.27;7.57;;;25.80;99.90;;;;;;5034670;28;20414;-58
2021/08/12 08:57:08;;;;;;;9.50;7.90;;;26.00;99.90;;;;;;5034448;28;20422;-59
2021/08/12 08:59:35;;;;;;;10.20;7.80;;;26.00;99.90;;;;;;5035084;28;20925;-59
2021/08/12 09:02:05;;;;;;;8.30;7.50;;;26.10;99.90;;;;;;5036918;28;20778;-58
2021/08/12 09:04:32;;;;;;;7.57;5.93;;;26.20;99.90;;;;;;5034372;28;20429;-59
2021/08/12 09:06:58;;;;;;;9.00;6.90;;;26.10;99.90;;;;;;5034206;28;20470;-59
2021/08/12 09:09:24;;;;;;;7.83;6.80;;;26.30;99.90;;;;;;5034513;28;20447;-59
2021/08/12 09:11:49;;;;;;;9.37;6.23;;;26.40;99.90;;;;;;5034654;28;20402;-59
2021/08/12 09:14:37;;;;;;;8.03;6.90;;;26.50;99.90;;;;;;5034205;28;20183;-58
2021/08/12 09:17:18;;;;;;;8.17;7.30;;;26.60;99.90;;;;;;5034023;28;20195;-58
2021/08/12 09:20:04;;;;;;;11.80;7.50;;;26.60;99.90;;;;;;5033954;28;20410;-57
2021/08/12 09:22:47;;;;;;;8.67;7.10;;;26.90;99.90;;;;;;5020069;28;20544;-59
2021/08/12 09:25:13;;;;;;;7.70;6.67;;;27.00;99.90;;;;;;5034244;28;20453;-59
2021/08/12 09:27:39;;;;;;;8.37;6.27;;;27.10;99.90;;;;;;5034343;28;20398;-59
2021/08/12 09:30:10;;;;;;;6.87;5.87;;;27.10;99.90;;;;;;5034096;28;20417;-58
2021/08/12 09:32:46;;;;;;;8.47;6.30;;;27.20;99.90;;;;;;5034210;28;20436;-57
2021/08/12 09:35:13;;;;;;;7.80;5.90;;;27.80;99.90;;;;;;5033693;28;20479;-58
2021/08/12 09:37:38;;;;;;;7.03;6.43;;;28.10;99.90;;;;;;5033947;28;20410;-57
2021/08/12 09:40:04;;;;;;;6.10;5.60;;;28.10;99.90;;;;;;5032750;28;20422;-54
2021/08/12 09:42:57;;;;;;;6.70;6.10;;;28.20;99.90;;;;;;5033697;28;20551;-56
2021/08/12 09:45:26;;;;;;;7.90;6.07;;;28.30;99.90;;;;;;5033691;28;20454;-57
2021/08/12 09:47:53;;;;;;;6.57;5.87;;;28.20;99.90;;;;;;5033162;28;20749;-56
2021/08/12 09:50:31;;;;;;;5.57;5.07;;;28.10;99.90;;;;;;5033442;28;20759;-57
2021/08/12 09:52:57;;;;;;;7.60;5.57;;;28.10;99.90;;;;;;5032949;28;20948;-57
2021/08/12 09:55:24;;;;;;;6.90;6.30;;;28.20;99.90;;;;;;5034035;28;20529;-57
2021/08/12 09:57:51;;;;;;;6.43;5.80;;;28.30;99.90;;;;;;5033608;28;20189;-57
2021/08/12 10:00:51;;;;;;;6.00;5.50;;;28.50;99.90;;;;;;5033633;28;20493;-57
2021/08/12 10:03:26;;;;;;;7.85;5.75;;;28.30;99.90;;;;;;4989896;28;20911;-57
2021/08/12 10:05:57;;;;;;;6.27;5.70;;;28.50;99.90;;;;;;5033247;28;20222;-57
2021/08/12 10:08:28;;;;;;;7.53;6.17;;;28.50;99.90;;;;;;5033332;28;20401;-56
2021/08/12 10:10:55;;;;;;;9.97;5.80;;;28.50;99.90;;;;;;5033603;28;20806;-55
2021/08/12 10:13:20;;;;;;;7.90;5.67;;;29.00;99.90;;;;;;5033668;28;20406;-58
2021/08/12 10:15:49;;;;;;;5.87;5.37;;;29.00;99.90;;;;;;5033450;28;20426;-56
2021/08/12 10:18:18;;;;;;;6.33;5.73;;;29.10;99.90;;;;;;5033070;28;20179;-58
2021/08/12 10:20:45;;;;;;;7.97;5.53;;;29.20;99.90;;;;;;5033359;28;20430;-56
2021/08/12 10:23:12;;;;;;;6.20;5.70;;;28.50;99.90;;;;;;5032989;28;20422;-57
2021/08/12 10:25:38;;;;;;;6.63;5.80;;;28.60;99.90;;;;;;5032979;28;20799;-57
2021/08/12 10:28:07;;;;;;;6.17;5.57;;;28.70;99.90;;;;;;5033326;28;20417;-56
2021/08/12 10:30:34;;;;;;;6.73;5.53;;;29.00;99.60;;;;;;5032929;28;20439;-56
2021/08/12 10:33:03;;;;;;;6.23;5.63;;;29.00;98.80;;;;;;5033268;28;20417;-59
2021/08/12 10:35:31;;;;;;;6.90;6.20;;;29.00;99.90;;;;;;5032969;28;20436;-56
2021/08/12 10:37:57;;;;;;;6.60;5.83;;;29.20;99.00;;;;;;5032845;28;20410;-56
2021/08/12 10:40:25;;;;;;;6.67;5.97;;;29.30;98.20;;;;;;5033133;28;20406;-55
2021/08/12 10:42:52;;;;;;;6.27;5.67;;;29.10;98.10;;;;;;5033178;28;20409;-57
2021/08/12 10:45:20;;;;;;;5.87;5.37;;;29.30;98.60;;;;;;5031888;28;20470;-53
2021/08/12 10:47:51;;;;;;;7.20;6.47;;;29.70;98.30;;;;;;5033094;28;20406;-57
2021/08/12 10:50:23;;;;;;;6.53;5.93;;;30.00;98.50;;;;;;5033125;28;20486;-58
2021/08/12 10:53:11;;;;;;;5.83;5.43;;;29.90;98.10;;;;;;5033245;28;20410;-57
2021/08/12 10:55:51;;;;;;;6.70;6.10;;;30.00;97.60;;;;;;5033113;28;20517;-57
2021/08/12 11:00:46;;;;;;;10.00;6.57;;;30.10;96.80;;;;;;5033125;28;20406;-57
2021/08/12 11:03:12;;;;;;;6.63;5.90;;;29.90;96.90;;;;;;5034472;28;20429;-57
2021/08/12 11:06:00;;;;;;;5.87;5.37;;;30.90;96.90;;;;;;5039141;28;20472;-54
2021/08/12 11:08:53;;;;;;;7.10;6.40;;;31.80;96.90;;;;;;5036084;28;20179;-58
2021/08/12 11:11:30;;;;;;;6.30;5.80;;;32.20;93.80;;;;;;5037455;28;20402;-58
2021/08/12 11:14:43;;;;;;;6.23;5.60;;;31.90;94.30;;;;;;5036431;28;20409;-57
2021/08/12 11:17:09;;;;;;;5.90;5.40;;;32.50;93.80;;;;;;5016888;28;20433;-58
2021/08/12 11:19:35;;;;;;;6.33;5.73;;;33.30;93.70;;;;;;5016413;28;20403;-58
2021/08/12 11:22:01;;;;;;;10.47;6.20;;;33.10;92.20;;;;;;5016703;28;20184;-57
2021/08/12 11:24:27;;;;;;;6.70;6.00;;;32.60;92.30;;;;;;5016559;28;20403;-58
2021/08/12 11:26:56;;;;;;;6.67;6.07;;;32.60;92.40;;;;;;5016146;28;20461;-57
2021/08/12 11:29:25;;;;;;;6.10;5.50;;;32.90;92.60;;;;;;5016376;28;20233;-55
2021/08/12 11:31:59;;;;;;;7.10;6.40;;;33.50;91.50;;;;;;5016801;28;20411;-58
2021/08/12 11:34:34;;;;;;;7.20;6.30;;;33.30;91.30;;;;;;5033842;28;20418;-57
2021/08/12 11:37:10;;;;;;;6.47;5.83;;;33.20;91.60;;;;;;5036223;28;20459;-58
2021/08/12 11:42:34;;;;;;;6.57;5.97;;;34.50;90.80;;;;;;5032385;28;20461;-58
2021/08/12 11:45:23;;;;;;;9.13;4.60;;;35.20;89.60;;;;;;5034945;28;20406;-56
2021/08/12 11:47:56;;;;;;;6.93;6.07;;;37.10;84.80;;;;;;5035961;28;20387;-57
2021/08/12 11:50:26;;;;;;;8.33;6.00;;;36.80;80.10;;;;;;5035764;28;20520;-58
2021/08/12 11:52:52;;;;;;;7.03;6.33;;;35.40;82.40;;;;;;5036043;28;20403;-57
2021/08/12 11:55:20;;;;;;;5.67;5.17;;;34.60;85.00;;;;;;5035934;28;20414;-58
2021/08/12 11:57:49;;;;;;;6.10;5.60;;;35.00;83.90;;;;;;5035548;28;20603;-57
2021/08/12 12:00:32;;;;;;;7.10;6.50;;;35.30;81.50;;;;;;5035666;28;20425;-58
2021/08/12 12:03:05;;;;;;;6.47;5.97;;;35.60;82.40;;;;;;5035836;28;20418;-58
2021/08/12 12:05:36;;;;;;;6.83;6.23;;;35.70;80.10;;;;;;5035443;28;21002;-58
2021/08/12 12:08:09;;;;;;;7.70;7.00;;;35.20;80.20;;;;;;5035699;28;20891;-58
2021/08/12 12:10:44;;;;;;;6.67;6.00;;;35.30;80.10;;;;;;5035255;28;20418;-58
2021/08/12 12:13:12;;;;;;;7.63;6.50;;;36.80;76.00;;;;;;5035734;28;20382;-59
2021/08/12 12:15:46;;;;;;;8.03;6.00;;;36.50;75.80;;;;;;5034413;28;20438;-58
2021/08/12 12:18:15;;;;;;;6.30;5.60;;;36.10;74.80;;;;;;5035660;28;20383;-58
2021/08/12 12:20:44;;;;;;;7.47;6.77;;;36.10;76.20;;;;;;5035335;28;20434;-58
2021/08/12 12:23:11;;;;;;;7.10;6.27;;;36.80;74.30;;;;;;5035555;28;20778;-58
2021/08/12 12:25:42;;;;;;;6.10;5.60;;;37.10;72.70;;;;;;5035178;28;20480;-54
2021/08/12 12:28:12;;;;;;;10.43;6.17;;;37.80;72.10;;;;;;5035418;28;20979;-56
2021/08/12 12:30:37;;;;;;;7.60;5.87;;;38.50;68.90;;;;;;5035603;28;20787;-58
2021/08/12 12:33:06;;;;;;;6.10;5.60;;;39.20;66.10;;;;;;5034978;28;20398;-58
2021/08/12 12:35:45;;;;;;;6.27;5.77;;;39.60;65.20;;;;;;5035254;28;20189;-59
2021/08/12 12:38:21;;;;;;;6.50;5.90;;;39.40;63.40;;;;;;5035082;28;20477;-59
2021/08/12 12:40:48;;;;;;;7.10;5.80;;;39.30;64.50;;;;;;5034354;28;20463;-56
2021/08/12 12:43:14;;;;;;;5.77;5.27;;;38.30;65.50;;;;;;5034825;28;20413;-59
2021/08/12 12:45:44;;;;;;;6.30;5.70;;;37.70;66.40;;;;;;5034152;28;20764;-59
2021/08/12 12:48:10;;;;;;;5.93;5.43;;;38.20;63.90;;;;;;5034739;28;20194;-58
2021/08/12 12:50:48;;;;;;;6.70;6.10;;;38.90;61.60;;;;;;5034742;28;20457;-59
2021/08/12 12:53:25;;;;;;;6.60;5.87;;;39.80;61.50;;;;;;5034692;28;20639;-59
2021/08/12 12:55:54;;;;;;;6.33;5.77;;;41.50;56.80;;;;;;5034561;28;20413;-58